This is the latest recevied weather packets stored in our database for station/object IZ2XCK-13. If no packets are shown the sender has not sent any weather packets the latest 10 day(s).
| Time | Temp. | Humidity | Pressure | Rain* | Wind** | Luminosity | Snow |
|---|---|---|---|---|---|---|---|
| 1788387203 | 22.78° C | 60% | 1022.2 hPa | - | - | - | - |
| 1788386002 | 22.78° C | 63% | 1022 hPa | - | - | - | - |
| 1788384802 | 22.78° C | 62% | 1021.9 hPa | - | - | - | - |
| 1788383602 | 22.78° C | 62% | 1021.8 hPa | - | - | - | - |
| 1788382402 | 23.33° C | 62% | 1021.8 hPa | - | - | - | - |
| 1788381201 | 22.78° C | 62% | 1021.7 hPa | - | - | - | - |
| 1788380001 | 22.78° C | 63% | 1021.6 hPa | - | - | - | - |
| 1788378801 | 23.33° C | 62% | 1021.6 hPa | - | - | - | - |
| 1788377600 | 23.89° C | 60% | 1021.5 hPa | - | - | - | - |
| 1788376400 | 23.33° C | 62% | 1021.3 hPa | - | - | - | - |
| 1788375200 | 24.44° C | 60% | 1021 hPa | - | - | - | - |
| 1788372799 | 24.44° C | 58% | 1020.5 hPa | - | - | - | - |
| 1788371599 | 25° C | 58% | 1020.3 hPa | - | - | - | - |
| 1788370398 | 25° C | 56% | 1020.2 hPa | - | - | - | - |
| 1788369198 | 25.56° C | 55% | 1020 hPa | - | - | - | - |
| 1788367998 | 26.11° C | 54% | 1019.9 hPa | - | - | - | - |
| 1788366797 | 26.67° C | 53% | 1019.8 hPa | - | - | - | - |
| 1788365597 | 27.78° C | 49% | 1019.8 hPa | - | - | - | - |
| 1788364397 | 27.78° C | 51% | 1019.9 hPa | - | - | - | - |
| 1788363197 | 27.78° C | 52% | 1019.9 hPa | - | - | - | - |
| 1788361996 | 28.33° C | 45% | 1019.9 hPa | - | - | - | - |
| 1788360796 | 30° C | 44% | 1020.1 hPa | - | - | - | - |
| 1788359596 | 30.56° C | 45% | 1020.3 hPa | - | - | - | - |
| 1788358395 | 27.78° C | 51% | 1020.5 hPa | - | - | - | - |
| 1788357261 | 28.33° C | 49% | 1020.7 hPa | - | - | - | - |
* Rain since midnight (hover to see other rain measurements)
** Current wind speed in m/s (hover to see current wind gust speed)